createdAt,value
2018-05-14T00:01:25.549Z,19.13
2018-05-14T00:03:53.026Z,20.90
2018-05-14T00:06:21.200Z,21.13
2018-05-14T00:08:48.648Z,20.50
2018-05-14T00:11:16.096Z,20.83
2018-05-14T00:13:43.552Z,20.47
2018-05-14T00:16:10.999Z,20.50
2018-05-14T00:18:38.436Z,18.37
2018-05-14T00:21:06.648Z,18.73
2018-05-14T00:23:34.088Z,20.00
2018-05-14T00:26:01.552Z,16.63
2018-05-14T00:28:28.984Z,13.50
2018-05-14T00:30:56.467Z,18.63
2018-05-14T00:33:23.901Z,20.53
2018-05-14T00:35:51.343Z,14.40
2018-05-14T00:38:19.552Z,18.70
2018-05-14T00:40:46.999Z,18.43
2018-05-14T00:43:14.432Z,21.27
2018-05-14T00:45:42.676Z,18.07
2018-05-14T00:48:10.121Z,19.17
2018-05-14T00:50:37.569Z,19.70
2018-05-14T00:53:05.776Z,22.27
2018-05-14T00:55:33.992Z,18.37
2018-05-14T00:58:01.439Z,17.67
2018-05-14T01:00:29.076Z,14.83
2018-05-14T01:02:57.293Z,17.30
2018-05-14T01:05:24.789Z,25.50
2018-05-14T01:07:52.236Z,23.03
2018-05-14T01:10:19.680Z,19.93
2018-05-14T01:12:47.150Z,17.93
2018-05-14T01:15:14.589Z,17.17
2018-05-14T01:17:42.077Z,22.70
2018-05-14T01:20:10.349Z,20.70
2018-05-14T01:22:38.764Z,17.53
2018-05-14T01:25:06.220Z,17.87
2018-05-14T01:27:33.680Z,19.67
2018-05-14T01:30:01.113Z,25.70
2018-05-14T01:32:29.368Z,22.70
2018-05-14T01:34:56.824Z,26.80
2018-05-14T01:37:25.779Z,19.97
2018-05-14T01:39:53.213Z,19.97
2018-05-14T01:42:20.660Z,22.17
2018-05-14T01:44:48.101Z,17.33
2018-05-14T01:47:16.325Z,22.90
2018-05-14T01:49:43.776Z,25.43
2018-05-14T01:52:11.241Z,18.43
2018-05-14T01:54:38.688Z,22.93
2018-05-14T01:57:06.144Z,26.00
2018-05-14T01:59:33.629Z,18.70
2018-05-14T02:02:01.068Z,15.47
2018-05-14T02:04:28.510Z,29.33
2018-05-14T02:06:56.024Z,36.57
2018-05-14T02:09:23.416Z,25.17
2018-05-14T02:11:50.840Z,28.13
2018-05-14T02:14:19.063Z,22.20
2018-05-14T02:16:46.492Z,21.83
2018-05-14T02:19:13.928Z,19.00
2018-05-14T02:21:41.368Z,21.30
2018-05-14T02:24:09.577Z,18.90
2018-05-14T02:26:37.014Z,30.63
2018-05-14T02:29:05.221Z,30.10
2018-05-14T02:31:32.676Z,24.37
2018-05-14T02:34:00.133Z,34.43
2018-05-14T02:36:27.600Z,30.80
2018-05-14T02:38:55.805Z,24.90
2018-05-14T02:41:23.249Z,25.47
2018-05-14T02:43:50.697Z,25.83
2018-05-14T02:46:18.145Z,28.77
2018-05-14T02:48:46.381Z,23.67
2018-05-14T02:51:13.829Z,27.73
2018-05-14T02:53:41.276Z,17.00
2018-05-14T02:56:09.485Z,26.90
2018-05-14T02:58:37.009Z,25.13
2018-05-14T03:01:04.373Z,18.67
2018-05-14T03:03:32.576Z,15.20
2018-05-14T03:06:00.024Z,25.13
2018-05-14T03:08:27.464Z,24.50
2018-05-14T03:10:54.912Z,31.33
2018-05-14T03:13:22.348Z,33.93
2018-05-14T03:15:49.797Z,27.57
2018-05-14T03:18:17.240Z,29.10
2018-05-14T03:20:44.691Z,26.13
2018-05-14T03:23:12.128Z,18.10
2018-05-14T03:25:39.588Z,18.03
2018-05-14T03:28:07.022Z,28.80
2018-05-14T03:30:34.489Z,17.10
2018-05-14T03:33:01.917Z,12.60
2018-05-14T03:35:29.404Z,23.13
2018-05-14T03:37:56.847Z,21.73
2018-05-14T03:40:24.289Z,32.10
2018-05-14T03:42:51.731Z,21.73
2018-05-14T03:45:19.963Z,31.10
2018-05-14T03:47:47.471Z,23.33
2018-05-14T03:50:14.936Z,29.20
2018-05-14T03:52:42.383Z,24.67
2018-05-14T03:55:10.586Z,21.93
2018-05-14T03:57:38.800Z,20.27
2018-05-14T04:00:18.210Z,17.93
2018-05-14T04:02:58.357Z,24.13
2018-05-14T04:05:37.710Z,19.87
2018-05-14T04:08:05.161Z,23.57
2018-05-14T04:10:32.606Z,35.37
2018-05-14T04:13:00.049Z,31.00
2018-05-14T04:15:28.489Z,18.70
2018-05-14T04:17:56.700Z,26.60
2018-05-14T04:20:24.145Z,18.43
2018-05-14T04:22:52.387Z,22.43
2018-05-14T04:25:19.854Z,28.47
2018-05-14T04:27:48.066Z,22.13
2018-05-14T04:30:15.573Z,27.40
2018-05-14T04:32:42.969Z,26.70
2018-05-14T04:35:10.406Z,21.17
2018-05-14T04:37:37.842Z,26.87
2018-05-14T04:40:06.079Z,18.40
2018-05-14T04:42:33.515Z,15.03
2018-05-14T04:45:01.041Z,14.80
2018-05-14T04:47:29.330Z,24.67
2018-05-14T04:49:57.541Z,20.10
2018-05-14T04:52:25.012Z,26.97
2018-05-14T04:54:52.476Z,16.57
2018-05-14T04:57:19.940Z,20.83
2018-05-14T04:59:47.381Z,25.43
2018-05-14T05:02:14.820Z,20.47
2018-05-14T05:04:42.268Z,23.27
2018-05-14T05:07:09.709Z,16.93
2018-05-14T05:09:37.176Z,15.00
2018-05-14T05:12:04.629Z,20.23
2018-05-14T05:14:32.085Z,24.03
2018-05-14T05:16:59.572Z,22.33
2018-05-14T05:19:27.013Z,25.20
2018-05-14T05:21:54.478Z,19.70
2018-05-14T05:24:21.928Z,20.63
2018-05-14T05:26:49.469Z,27.03
2018-05-14T05:29:16.905Z,19.00
2018-05-14T05:31:45.145Z,18.13
2018-05-14T05:34:12.580Z,20.27
2018-05-14T05:36:40.033Z,16.43
2018-05-14T05:39:07.469Z,15.00
2018-05-14T05:41:34.914Z,15.87
2018-05-14T05:44:02.357Z,22.63
2018-05-14T05:46:29.807Z,20.40
2018-05-14T05:48:58.007Z,23.77
2018-05-14T05:51:26.323Z,16.20
2018-05-14T05:53:53.753Z,14.67
2018-05-14T05:56:21.198Z,18.73
2018-05-14T05:58:48.648Z,19.53
2018-05-14T06:01:16.157Z,19.67
2018-05-14T06:03:43.544Z,17.60
2018-05-14T06:06:10.976Z,33.13
2018-05-14T06:08:39.193Z,25.37
2018-05-14T06:11:06.624Z,17.60
2018-05-14T06:13:34.064Z,19.30
2018-05-14T06:16:02.280Z,18.20
2018-05-14T06:18:30.492Z,33.53
2018-05-14T06:20:57.933Z,30.70
2018-05-14T06:23:25.385Z,15.73
2018-05-14T06:25:52.817Z,30.63
2018-05-14T06:28:20.297Z,29.60
2018-05-14T06:30:47.745Z,25.43
2018-05-14T06:33:15.189Z,22.27
2018-05-14T06:35:42.800Z,26.20
2018-05-14T06:38:10.118Z,22.97
2018-05-14T06:40:37.601Z,23.33
2018-05-14T06:43:05.032Z,18.77
2018-05-14T06:45:32.484Z,20.50
2018-05-14T06:47:59.926Z,19.87
2018-05-14T06:50:27.389Z,15.43
2018-05-14T06:52:54.837Z,23.17
2018-05-14T06:55:22.279Z,19.83
2018-05-14T06:57:49.731Z,22.60
2018-05-14T07:00:17.942Z,20.47
2018-05-14T07:02:45.384Z,18.43
2018-05-14T07:05:12.832Z,14.83
2018-05-14T07:07:40.270Z,13.87
2018-05-14T07:10:07.737Z,26.23
2018-05-14T07:12:35.177Z,30.40
2018-05-14T07:15:03.394Z,18.70
2018-05-14T07:17:30.851Z,12.60
2018-05-14T07:19:58.294Z,21.90
2018-05-14T07:22:25.729Z,24.47
2018-05-14T07:24:53.189Z,20.73
2018-05-14T07:27:21.382Z,19.77
2018-05-14T07:29:48.849Z,15.40
2018-05-14T07:32:16.290Z,11.83
2018-05-14T07:34:43.738Z,11.13
2018-05-14T07:37:11.173Z,9.23
2018-05-14T07:39:39.376Z,8.90
2018-05-14T07:42:06.832Z,14.07
2018-05-14T07:44:34.312Z,14.10
2018-05-14T07:47:03.279Z,10.07
2018-05-14T07:49:30.734Z,9.83
2018-05-14T07:51:58.187Z,12.20
2018-05-14T07:54:25.668Z,16.13
2018-05-14T07:56:53.116Z,11.10
2018-05-14T07:59:20.556Z,12.80
2018-05-14T08:01:49.000Z,17.70
2018-05-14T08:04:17.213Z,11.83
2018-05-14T08:06:44.660Z,11.77
2018-05-14T08:09:12.109Z,14.37
2018-05-14T08:11:39.602Z,11.60
2018-05-14T08:14:07.806Z,8.23
2018-05-14T08:16:35.253Z,8.70
2018-05-14T08:19:02.691Z,15.20
2018-05-14T08:21:30.914Z,12.40
2018-05-14T08:23:58.363Z,26.60
2018-05-14T08:26:26.580Z,15.60
2018-05-14T08:28:54.016Z,17.53
2018-05-14T08:31:21.634Z,12.30
2018-05-14T08:33:49.764Z,28.53
2018-05-14T08:36:17.212Z,31.90
2018-05-14T08:38:44.658Z,18.90
2018-05-14T08:41:12.434Z,17.73
2018-05-14T08:43:40.717Z,24.03
2018-05-14T08:46:08.164Z,15.07
2018-05-14T08:48:35.668Z,19.27
2018-05-14T08:51:03.501Z,17.07
2018-05-14T08:53:31.736Z,15.90
2018-05-14T08:56:00.284Z,21.87
2018-05-14T08:58:28.508Z,42.17
2018-05-14T09:00:55.952Z,20.07
2018-05-14T09:03:24.165Z,19.03
2018-05-14T09:05:52.400Z,26.60
2018-05-14T09:08:19.860Z,25.47
2018-05-14T09:10:47.329Z,16.17
2018-05-14T09:13:14.763Z,22.33
2018-05-14T09:15:42.975Z,17.57
2018-05-14T09:18:10.421Z,27.47
2018-05-14T09:20:37.861Z,20.67
2018-05-14T09:23:06.088Z,32.77
2018-05-14T09:25:33.613Z,23.17
2018-05-14T09:28:00.966Z,27.57
2018-05-14T09:30:28.426Z,21.67
2018-05-14T09:32:55.913Z,18.70
2018-05-14T09:35:23.390Z,20.90
2018-05-14T09:37:51.763Z,25.67
2018-05-14T09:40:19.979Z,25.30
2018-05-14T09:42:47.432Z,29.47
2018-05-14T09:45:14.879Z,32.10
2018-05-14T09:47:43.104Z,27.33
2018-05-14T09:50:10.608Z,43.23
2018-05-14T09:52:38.067Z,30.07
2018-05-14T09:55:05.513Z,33.00
2018-05-14T09:57:33.724Z,29.73
2018-05-14T10:00:01.185Z,37.07
2018-05-14T10:02:28.632Z,41.73
2018-05-14T10:04:56.095Z,27.97
2018-05-14T10:07:23.738Z,36.10
2018-05-14T10:09:51.298Z,27.10
2018-05-14T10:12:19.504Z,34.63
2018-05-14T10:14:46.945Z,31.33
2018-05-14T10:17:14.397Z,25.50
2018-05-14T10:19:41.983Z,28.90
2018-05-14T10:22:09.455Z,37.50
2018-05-14T10:24:37.023Z,32.60
2018-05-14T10:27:05.174Z,29.67
2018-05-14T10:29:32.721Z,26.60
2018-05-14T10:32:00.179Z,31.50
2018-05-14T10:34:27.614Z,26.60
2018-05-14T10:36:55.064Z,26.27
2018-05-14T10:39:22.496Z,35.20
2018-05-14T10:41:50.708Z,31.43
2018-05-14T10:44:18.170Z,35.30
2018-05-14T10:46:45.616Z,28.97
2018-05-14T10:49:13.099Z,30.80
2018-05-14T10:51:40.556Z,36.17
2018-05-14T10:54:09.101Z,33.67
2018-05-14T10:56:37.365Z,46.93
2018-05-14T10:59:04.839Z,39.30
2018-05-14T11:01:32.280Z,37.87
2018-05-14T11:04:00.905Z,35.73
2018-05-14T11:06:28.712Z,28.93
2018-05-14T11:08:56.487Z,35.13
2018-05-14T11:11:24.239Z,39.60
2018-05-14T11:13:52.107Z,38.23
2018-05-14T11:16:20.570Z,39.27
2018-05-14T11:18:48.241Z,37.70
2018-05-14T11:21:15.702Z,32.63
2018-05-14T11:23:44.259Z,31.00
2018-05-14T11:26:12.709Z,27.60
2018-05-14T11:28:40.474Z,34.83
2018-05-14T11:31:09.849Z,36.27
2018-05-14T11:33:37.633Z,36.37
2018-05-14T11:36:06.588Z,39.80
2018-05-14T11:38:34.410Z,35.73
2018-05-14T11:41:02.197Z,39.57
2018-05-14T11:43:30.046Z,37.07
2018-05-14T11:45:58.819Z,37.00
2018-05-14T11:48:26.333Z,36.53
2018-05-14T11:50:55.665Z,38.53
2018-05-14T11:53:24.137Z,39.60
2018-05-14T11:55:52.162Z,45.20
2018-05-14T11:58:19.950Z,32.90
2018-05-14T12:00:47.784Z,42.80
2018-05-14T12:03:16.365Z,51.47
2018-05-14T12:05:43.831Z,38.77
2018-05-14T12:08:12.538Z,38.07
2018-05-14T12:10:40.307Z,33.20
2018-05-14T12:13:09.021Z,40.90
2018-05-14T12:15:36.518Z,36.73
2018-05-14T12:18:04.044Z,39.17
2018-05-14T12:20:32.277Z,40.10
2018-05-14T12:22:59.757Z,33.47
2018-05-14T12:25:27.218Z,32.93
2018-05-14T12:27:54.665Z,35.37
2018-05-14T12:30:22.101Z,37.87
2018-05-14T12:32:50.308Z,39.13
2018-05-14T12:35:17.756Z,39.43
2018-05-14T12:37:45.993Z,50.40
2018-05-14T12:40:14.208Z,43.70
2018-05-14T12:42:41.644Z,50.30
2018-05-14T12:45:09.102Z,51.83
2018-05-14T12:47:36.553Z,49.80
2018-05-14T12:50:04.773Z,56.40
2018-05-14T12:52:32.247Z,52.43
2018-05-14T12:55:00.801Z,49.90
2018-05-14T12:57:29.273Z,45.27
2018-05-14T12:59:58.697Z,46.50
2018-05-14T13:02:26.977Z,53.07
2018-05-14T13:04:54.507Z,45.70
2018-05-14T13:07:21.975Z,33.30
2018-05-14T13:09:49.429Z,48.30
2018-05-14T13:12:16.879Z,46.57
2018-05-14T13:14:44.333Z,50.57
2018-05-14T13:17:11.787Z,46.37
2018-05-14T13:19:39.251Z,50.57
2018-05-14T13:22:06.691Z,48.70
2018-05-14T13:24:34.440Z,54.30
2018-05-14T13:27:02.698Z,51.77
2018-05-14T13:29:30.152Z,49.47
2018-05-14T13:31:57.623Z,49.57
2018-05-14T13:34:25.862Z,45.10
2018-05-14T13:36:53.491Z,35.30
2018-05-14T13:39:20.994Z,49.93
2018-05-14T13:41:48.437Z,48.10
2018-05-14T13:44:15.956Z,42.70
2018-05-14T13:46:43.337Z,49.13
2018-05-14T13:49:10.781Z,50.40
2018-05-14T13:51:38.264Z,49.43
2018-05-14T13:54:05.727Z,49.50
2018-05-14T13:56:33.243Z,48.63
2018-05-14T13:59:00.694Z,48.23
2018-05-14T14:01:28.224Z,47.90
2018-05-14T14:03:55.713Z,42.80
2018-05-14T14:06:23.154Z,46.90
2018-05-14T14:08:51.365Z,49.63
2018-05-14T14:11:18.827Z,46.57
2018-05-14T14:13:46.254Z,47.50
2018-05-14T14:16:13.820Z,44.83
2018-05-14T14:18:42.101Z,46.53
2018-05-14T14:21:09.549Z,45.60
2018-05-14T14:23:37.161Z,45.80
2018-05-14T14:26:05.213Z,46.67
2018-05-14T14:28:32.672Z,45.70
2018-05-14T14:31:00.120Z,43.03
2018-05-14T14:33:27.581Z,41.67
2018-05-14T14:35:55.076Z,36.20
2018-05-14T14:38:22.471Z,34.67
2018-05-14T14:40:49.918Z,41.77
2018-05-14T14:43:17.361Z,41.67
2018-05-14T14:45:45.599Z,42.07
2018-05-14T14:48:13.072Z,41.70
2018-05-14T14:50:40.520Z,40.63
2018-05-14T14:53:08.243Z,42.03
2018-05-14T14:55:35.735Z,40.53
2018-05-14T14:58:03.229Z,42.77
2018-05-14T15:00:31.477Z,39.20
2018-05-14T15:02:58.928Z,40.10
2018-05-14T15:05:26.395Z,37.97
2018-05-14T15:07:53.882Z,33.63
2018-05-14T15:10:21.348Z,28.73
2018-05-14T15:12:48.776Z,34.67
2018-05-14T15:15:16.992Z,43.07
2018-05-14T15:17:44.438Z,39.77
2018-05-14T15:20:11.929Z,35.73
2018-05-14T15:22:40.084Z,34.40
2018-05-14T15:25:07.546Z,29.53
2018-05-14T15:27:34.986Z,34.77
2018-05-14T15:30:02.444Z,33.93
2018-05-14T15:32:29.925Z,35.57
2018-05-14T15:34:57.400Z,36.67
2018-05-14T15:37:24.848Z,32.73
2018-05-14T15:39:52.425Z,32.80
2018-05-14T15:42:19.886Z,34.47
2018-05-14T15:44:47.364Z,34.83
2018-05-14T15:47:14.931Z,30.53
2018-05-14T15:49:42.435Z,31.63
2018-05-14T15:52:09.887Z,32.17
2018-05-14T15:54:37.320Z,28.33
2018-05-14T15:57:04.781Z,23.67
2018-05-14T15:59:32.372Z,19.87
2018-05-14T16:02:00.686Z,16.83
2018-05-14T16:04:28.169Z,14.43
2018-05-14T16:06:55.891Z,12.67
2018-05-14T16:09:23.457Z,12.70
2018-05-14T16:11:50.905Z,11.83
2018-05-14T16:14:18.352Z,10.93
2018-05-14T16:16:45.802Z,11.67
2018-05-14T16:19:13.244Z,11.20
2018-05-14T16:21:41.387Z,9.93
2018-05-14T16:24:08.860Z,8.90
2018-05-14T16:26:36.336Z,8.93
2018-05-14T16:29:03.743Z,7.13
2018-05-14T16:31:31.953Z,8.30
2018-05-14T16:33:59.520Z,9.00
2018-05-14T16:36:27.124Z,8.83
2018-05-14T16:38:54.763Z,8.30
2018-05-14T16:41:22.213Z,6.47
2018-05-14T16:43:49.667Z,6.30
2018-05-14T16:46:17.407Z,8.43
2018-05-14T16:48:44.885Z,6.87
2018-05-14T16:51:13.101Z,6.53
2018-05-14T16:53:41.303Z,6.80
2018-05-14T16:56:12.094Z,6.13
2018-05-14T16:58:39.521Z,5.90
2018-05-14T17:01:06.962Z,5.50
2018-05-14T17:03:34.408Z,5.17
2018-05-14T17:06:01.854Z,5.67
2018-05-14T17:08:30.112Z,6.03
2018-05-14T17:10:58.330Z,6.23
2018-05-14T17:13:25.887Z,4.63
2018-05-14T17:15:53.308Z,4.60
2018-05-14T17:18:21.531Z,4.73
2018-05-14T17:20:48.965Z,5.37
2018-05-14T17:23:16.414Z,5.33
2018-05-14T17:25:43.891Z,5.33
2018-05-14T17:28:11.320Z,6.23
2018-05-14T17:30:39.533Z,4.50
2018-05-14T17:33:06.977Z,4.57
2018-05-14T17:35:34.421Z,4.30
2018-05-14T17:38:01.902Z,3.67
2018-05-14T17:40:29.349Z,3.37
2018-05-14T17:42:56.817Z,3.53
2018-05-14T17:45:24.246Z,3.80
2018-05-14T17:47:51.697Z,4.50
2018-05-14T17:50:19.915Z,4.63
2018-05-14T17:52:48.141Z,4.23
2018-05-14T17:55:16.333Z,4.47
2018-05-14T17:57:43.781Z,4.10
2018-05-14T18:00:11.224Z,4.00
2018-05-14T18:02:39.441Z,3.17
2018-05-14T18:05:06.963Z,4.00
2018-05-14T18:07:34.592Z,3.93
2018-05-14T18:10:02.860Z,3.27
2018-05-14T18:12:30.301Z,3.00
2018-05-14T18:14:57.739Z,3.93
2018-05-14T18:17:25.192Z,3.73
2018-05-14T18:19:58.288Z,3.03
2018-05-14T18:22:25.753Z,3.10
2018-05-14T18:24:59.020Z,2.47
2018-05-14T18:27:31.323Z,3.10
2018-05-14T18:30:13.674Z,2.90
2018-05-14T18:32:56.775Z,3.33
2018-05-14T18:35:24.212Z,2.97
2018-05-14T18:37:51.661Z,3.20
2018-05-14T18:40:19.100Z,3.57
2018-05-14T18:42:46.588Z,2.73
2018-05-14T18:45:14.072Z,3.37
2018-05-14T18:47:42.281Z,3.00
2018-05-14T18:50:09.739Z,2.87
2018-05-14T18:52:37.180Z,3.30
2018-05-14T18:55:04.678Z,2.70
2018-05-14T18:57:32.128Z,2.67
2018-05-14T18:59:59.576Z,2.00
2018-05-14T19:02:27.005Z,2.60
2018-05-14T19:04:55.216Z,2.20
2018-05-14T19:07:22.659Z,1.87
2018-05-14T19:09:50.098Z,2.00
2018-05-14T19:12:17.530Z,1.80
2018-05-14T19:14:50.734Z,2.00
2018-05-14T19:17:24.758Z,2.10
2018-05-14T19:19:52.214Z,1.80
2018-05-14T19:22:25.355Z,2.27
2018-05-14T19:24:52.825Z,1.77
2018-05-14T19:27:20.408Z,1.40
2018-05-14T19:29:48.649Z,1.93
2018-05-14T19:32:16.085Z,1.40
2018-05-14T19:34:49.202Z,1.30
2018-05-14T19:37:16.661Z,1.47
2018-05-14T19:39:49.723Z,1.47
2018-05-14T19:42:17.923Z,1.50
2018-05-14T19:44:45.380Z,1.60
2018-05-14T19:47:12.846Z,1.40
2018-05-14T19:49:40.295Z,1.40
2018-05-14T19:52:07.717Z,1.20
2018-05-14T19:54:35.163Z,1.60
2018-05-14T19:57:02.592Z,2.10
2018-05-14T19:59:30.800Z,2.70
2018-05-14T20:01:58.238Z,2.83
2018-05-14T20:04:25.693Z,4.30
2018-05-14T20:06:53.221Z,5.57
2018-05-14T20:09:21.337Z,6.03
2018-05-14T20:11:48.802Z,4.33
2018-05-14T20:14:16.248Z,11.33
2018-05-14T20:16:43.681Z,9.10
2018-05-14T20:19:11.892Z,7.70
2018-05-14T20:21:39.336Z,10.20
2018-05-14T20:24:06.805Z,12.50
2018-05-14T20:26:34.301Z,10.17
2018-05-14T20:29:01.954Z,11.90
2018-05-14T20:31:29.551Z,15.30
2018-05-14T20:33:58.328Z,16.40
2018-05-14T20:36:26.564Z,14.07
2018-05-14T20:38:54.005Z,12.50
2018-05-14T20:41:21.452Z,16.90
2018-05-14T20:43:49.141Z,16.47
2018-05-14T20:46:17.658Z,15.73
2018-05-14T20:48:45.893Z,12.90
2018-05-14T20:51:14.117Z,13.77
2018-05-14T20:53:42.318Z,12.07
2018-05-14T20:56:09.773Z,14.23
2018-05-14T20:58:37.268Z,10.90
2018-05-14T21:01:04.718Z,10.80
2018-05-14T21:03:32.191Z,10.87
2018-05-14T21:06:00.532Z,10.40
2018-05-14T21:08:27.985Z,11.23
2018-05-14T21:10:55.437Z,11.50
2018-05-14T21:13:22.873Z,9.77
2018-05-14T21:15:50.320Z,12.70
2018-05-14T21:18:17.974Z,16.17
2018-05-14T21:20:45.472Z,11.70
2018-05-14T21:23:13.680Z,12.73
2018-05-14T21:25:41.128Z,14.77
2018-05-14T21:28:08.687Z,15.97
2018-05-14T21:30:36.149Z,12.27
2018-05-14T21:33:03.599Z,14.27
2018-05-14T21:35:31.051Z,13.30
2018-05-14T21:37:59.310Z,12.90
2018-05-14T21:40:26.765Z,14.57
2018-05-14T21:42:54.246Z,11.87
2018-05-14T21:45:21.922Z,12.40
2018-05-14T21:47:49.397Z,11.23
2018-05-14T21:50:17.672Z,13.53
2018-05-14T21:52:45.817Z,13.70
2018-05-14T21:55:14.033Z,9.63
2018-05-14T21:57:41.543Z,14.73
2018-05-14T22:00:08.993Z,9.63
2018-05-14T22:02:36.442Z,9.47
2018-05-14T22:05:03.889Z,10.33
2018-05-14T22:07:31.573Z,9.87
2018-05-14T22:09:59.181Z,12.03
2018-05-14T22:12:26.657Z,10.83
2018-05-14T22:14:54.097Z,13.87
2018-05-14T22:17:21.545Z,10.83
2018-05-14T22:19:48.980Z,20.23
2018-05-14T22:22:17.201Z,17.83
2018-05-14T22:24:44.867Z,19.73
2018-05-14T22:27:13.148Z,16.57
2018-05-14T22:29:40.590Z,16.20
2018-05-14T22:32:08.047Z,17.83
2018-05-14T22:34:36.275Z,14.27
2018-05-14T22:37:04.601Z,13.47
2018-05-14T22:39:32.102Z,15.57
2018-05-14T22:41:59.537Z,15.20
2018-05-14T22:44:27.746Z,17.77
2018-05-14T22:46:55.959Z,15.23
2018-05-14T22:49:23.410Z,25.20
2018-05-14T22:51:50.882Z,22.83
2018-05-14T22:54:30.080Z,22.90
2018-05-14T22:56:57.537Z,15.53
2018-05-14T22:59:25.773Z,19.90
2018-05-14T23:01:53.259Z,20.23
2018-05-14T23:04:21.479Z,15.57
2018-05-14T23:06:48.940Z,17.63
2018-05-14T23:09:16.379Z,17.17
2018-05-14T23:11:43.834Z,23.17
2018-05-14T23:14:11.338Z,22.17
2018-05-14T23:16:38.793Z,21.30
2018-05-14T23:19:07.074Z,26.67
2018-05-14T23:21:34.525Z,25.60
2018-05-14T23:24:01.958Z,19.73
2018-05-14T23:26:29.400Z,17.50
2018-05-14T23:28:56.847Z,16.33
2018-05-14T23:31:24.314Z,20.87
2018-05-14T23:33:51.768Z,19.57
2018-05-14T23:36:19.261Z,19.33
2018-05-14T23:38:46.731Z,22.10
2018-05-14T23:41:14.164Z,25.10
2018-05-14T23:43:41.616Z,18.50
2018-05-14T23:46:09.054Z,19.40
2018-05-14T23:48:36.500Z,20.47
2018-05-14T23:51:03.975Z,15.10
2018-05-14T23:53:31.418Z,27.37
2018-05-14T23:55:58.871Z,22.73
2018-05-14T23:58:26.345Z,25.67
